sensor_id;sensor_type;location;lat;lon;timestamp;temperature;humidity
2465;DHT22;1244;54.326;10.074;2023-05-23T00:00:53;15.20;99.90
2465;DHT22;1244;54.326;10.074;2023-05-23T00:03:19;15.00;99.90
2465;DHT22;1244;54.326;10.074;2023-05-23T00:05:47;15.00;99.90
2465;DHT22;1244;54.326;10.074;2023-05-23T00:08:12;14.90;99.90
2465;DHT22;1244;54.326;10.074;2023-05-23T00:10:38;15.20;99.90
2465;DHT22;1244;54.326;10.074;2023-05-23T00:13:03;15.10;99.90
2465;DHT22;1244;54.326;10.074;2023-05-23T00:15:30;15.00;99.90
2465;DHT22;1244;54.326;10.074;2023-05-23T00:17:55;15.10;99.90
2465;DHT22;1244;54.326;10.074;2023-05-23T00:20:21;15.00;99.90
2465;DHT22;1244;54.326;10.074;2023-05-23T00:22:47;15.20;99.90
2465;DHT22;1244;54.326;10.074;2023-05-23T00:25:13;15.00;99.90
2465;DHT22;1244;54.326;10.074;2023-05-23T00:27:38;15.10;99.90
2465;DHT22;1244;54.326;10.074;2023-05-23T00:30:04;14.90;99.90
2465;DHT22;1244;54.326;10.074;2023-05-23T00:32:30;15.00;99.90
2465;DHT22;1244;54.326;10.074;2023-05-23T00:34:55;14.90;99.90
2465;DHT22;1244;54.326;10.074;2023-05-23T00:37:21;15.10;99.90
2465;DHT22;1244;54.326;10.074;2023-05-23T00:39:47;15.10;99.90
2465;DHT22;1244;54.326;10.074;2023-05-23T00:42:13;15.10;99.90
2465;DHT22;1244;54.326;10.074;2023-05-23T00:44:38;15.00;99.90
2465;DHT22;1244;54.326;10.074;2023-05-23T00:47:06;15.00;99.90
2465;DHT22;1244;54.326;10.074;2023-05-23T00:49:32;15.00;99.90
2465;DHT22;1244;54.326;10.074;2023-05-23T00:51:58;15.10;99.90
2465;DHT22;1244;54.326;10.074;2023-05-23T00:54:27;15.10;99.90
2465;DHT22;1244;54.326;10.074;2023-05-23T00:56:55;15.10;99.90
2465;DHT22;1244;54.326;10.074;2023-05-23T00:59:23;15.20;99.90
2465;DHT22;1244;54.326;10.074;2023-05-23T01:01:50;15.00;99.90
2465;DHT22;1244;54.326;10.074;2023-05-23T01:04:17;15.00;99.90
2465;DHT22;1244;54.326;10.074;2023-05-23T01:06:44;15.10;99.90
2465;DHT22;1244;54.326;10.074;2023-05-23T01:09:17;15.00;99.90
2465;DHT22;1244;54.326;10.074;2023-05-23T01:11:53;14.80;99.90
2465;DHT22;1244;54.326;10.074;2023-05-23T01:14:34;14.90;99.90
2465;DHT22;1244;54.326;10.074;2023-05-23T01:19:58;14.80;99.90
2465;DHT22;1244;54.326;10.074;2023-05-23T01:28:14;14.80;99.90
2465;DHT22;1244;54.326;10.074;2023-05-23T01:30:43;14.80;99.90
2465;DHT22;1244;54.326;10.074;2023-05-23T01:33:10;14.80;99.90
2465;DHT22;1244;54.326;10.074;2023-05-23T01:35:39;14.90;99.90
2465;DHT22;1244;54.326;10.074;2023-05-23T01:38:04;14.90;99.90
2465;DHT22;1244;54.326;10.074;2023-05-23T01:40:30;14.70;99.90
2465;DHT22;1244;54.326;10.074;2023-05-23T01:42:55;14.60;99.90
2465;DHT22;1244;54.326;10.074;2023-05-23T01:45:24;14.70;99.90
2465;DHT22;1244;54.326;10.074;2023-05-23T01:47:50;14.60;99.90
2465;DHT22;1244;54.326;10.074;2023-05-23T01:50:17;14.60;99.90
2465;DHT22;1244;54.326;10.074;2023-05-23T01:52:42;14.80;99.90
2465;DHT22;1244;54.326;10.074;2023-05-23T01:55:08;14.80;99.90
2465;DHT22;1244;54.326;10.074;2023-05-23T01:57:35;14.80;99.90
2465;DHT22;1244;54.326;10.074;2023-05-23T02:00:03;14.50;99.90
2465;DHT22;1244;54.326;10.074;2023-05-23T02:02:30;14.40;99.90
2465;DHT22;1244;54.326;10.074;2023-05-23T02:04:57;14.30;99.90
2465;DHT22;1244;54.326;10.074;2023-05-23T02:07:22;14.50;99.90
2465;DHT22;1244;54.326;10.074;2023-05-23T02:09:48;14.40;99.90
2465;DHT22;1244;54.326;10.074;2023-05-23T02:12:14;14.50;99.90
2465;DHT22;1244;54.326;10.074;2023-05-23T02:14:39;14.40;99.90
2465;DHT22;1244;54.326;10.074;2023-05-23T02:17:07;14.40;99.90
2465;DHT22;1244;54.326;10.074;2023-05-23T02:19:34;14.40;99.90
2465;DHT22;1244;54.326;10.074;2023-05-23T02:22:00;14.20;99.90
2465;DHT22;1244;54.326;10.074;2023-05-23T02:24:25;14.20;99.90
2465;DHT22;1244;54.326;10.074;2023-05-23T02:26:51;14.20;99.90
2465;DHT22;1244;54.326;10.074;2023-05-23T02:29:17;14.10;99.90
2465;DHT22;1244;54.326;10.074;2023-05-23T02:31:43;14.20;99.90
2465;DHT22;1244;54.326;10.074;2023-05-23T02:34:08;14.10;99.90
2465;DHT22;1244;54.326;10.074;2023-05-23T02:36:34;14.20;99.90
2465;DHT22;1244;54.326;10.074;2023-05-23T02:39:01;14.10;99.90
2465;DHT22;1244;54.326;10.074;2023-05-23T02:41:27;14.10;99.90
2465;DHT22;1244;54.326;10.074;2023-05-23T02:43:52;14.20;99.90
2465;DHT22;1244;54.326;10.074;2023-05-23T02:46:18;14.20;99.90
2465;DHT22;1244;54.326;10.074;2023-05-23T02:48:43;14.10;99.90
2465;DHT22;1244;54.326;10.074;2023-05-23T02:51:09;14.20;99.90
2465;DHT22;1244;54.326;10.074;2023-05-23T02:53:35;14.20;99.90
2465;DHT22;1244;54.326;10.074;2023-05-23T02:56:00;14.10;99.90
2465;DHT22;1244;54.326;10.074;2023-05-23T02:58:26;14.10;99.90
2465;DHT22;1244;54.326;10.074;2023-05-23T03:00:51;14.10;99.90
2465;DHT22;1244;54.326;10.074;2023-05-23T03:03:17;14.10;99.90
2465;DHT22;1244;54.326;10.074;2023-05-23T03:05:42;14.20;99.90
2465;DHT22;1244;54.326;10.074;2023-05-23T03:08:08;14.30;99.90
2465;DHT22;1244;54.326;10.074;2023-05-23T03:10:33;14.40;99.90
2465;DHT22;1244;54.326;10.074;2023-05-23T03:12:59;14.20;99.90
2465;DHT22;1244;54.326;10.074;2023-05-23T03:15:24;14.30;99.90
2465;DHT22;1244;54.326;10.074;2023-05-23T03:17:50;14.20;99.90
2465;DHT22;1244;54.326;10.074;2023-05-23T03:20:15;14.20;99.90
2465;DHT22;1244;54.326;10.074;2023-05-23T03:22:41;14.20;99.90
2465;DHT22;1244;54.326;10.074;2023-05-23T03:25:09;14.20;99.90
2465;DHT22;1244;54.326;10.074;2023-05-23T03:27:35;14.20;99.90
2465;DHT22;1244;54.326;10.074;2023-05-23T03:30:02;14.40;99.90
2465;DHT22;1244;54.326;10.074;2023-05-23T03:32:28;14.40;99.90
2465;DHT22;1244;54.326;10.074;2023-05-23T03:34:53;14.40;99.90
2465;DHT22;1244;54.326;10.074;2023-05-23T03:37:19;14.40;99.90
2465;DHT22;1244;54.326;10.074;2023-05-23T03:39:45;14.40;99.90
2465;DHT22;1244;54.326;10.074;2023-05-23T03:42:10;14.20;99.90
2465;DHT22;1244;54.326;10.074;2023-05-23T03:44:36;14.30;99.90
2465;DHT22;1244;54.326;10.074;2023-05-23T03:47:01;14.30;99.90
2465;DHT22;1244;54.326;10.074;2023-05-23T03:49:27;14.40;99.90
2465;DHT22;1244;54.326;10.074;2023-05-23T03:51:52;14.40;99.90
2465;DHT22;1244;54.326;10.074;2023-05-23T03:54:18;14.20;99.90
2465;DHT22;1244;54.326;10.074;2023-05-23T03:56:44;14.30;99.90
2465;DHT22;1244;54.326;10.074;2023-05-23T03:59:10;14.20;99.90
2465;DHT22;1244;54.326;10.074;2023-05-23T04:01:35;14.20;99.90
2465;DHT22;1244;54.326;10.074;2023-05-23T04:04:01;14.20;99.90
2465;DHT22;1244;54.326;10.074;2023-05-23T04:06:27;14.30;99.90
2465;DHT22;1244;54.326;10.074;2023-05-23T04:08:56;14.20;99.90
2465;DHT22;1244;54.326;10.074;2023-05-23T04:11:21;14.20;99.90
2465;DHT22;1244;54.326;10.074;2023-05-23T04:13:47;14.30;99.90
2465;DHT22;1244;54.326;10.074;2023-05-23T04:16:12;13.90;99.90
2465;DHT22;1244;54.326;10.074;2023-05-23T04:18:38;13.70;99.90
2465;DHT22;1244;54.326;10.074;2023-05-23T04:21:04;13.90;99.90
2465;DHT22;1244;54.326;10.074;2023-05-23T04:23:30;14.00;99.90
2465;DHT22;1244;54.326;10.074;2023-05-23T04:25:55;14.00;99.90
2465;DHT22;1244;54.326;10.074;2023-05-23T04:28:22;13.80;99.90
2465;DHT22;1244;54.326;10.074;2023-05-23T04:30:48;13.70;99.90
2465;DHT22;1244;54.326;10.074;2023-05-23T04:33:14;13.90;99.90
2465;DHT22;1244;54.326;10.074;2023-05-23T04:35:39;13.90;99.90
2465;DHT22;1244;54.326;10.074;2023-05-23T04:38:05;13.90;99.90
2465;DHT22;1244;54.326;10.074;2023-05-23T04:40:31;13.90;99.90
2465;DHT22;1244;54.326;10.074;2023-05-23T04:42:56;13.80;99.90
2465;DHT22;1244;54.326;10.074;2023-05-23T04:45:22;13.80;99.90
2465;DHT22;1244;54.326;10.074;2023-05-23T04:47:47;13.90;99.90
2465;DHT22;1244;54.326;10.074;2023-05-23T04:50:13;13.90;99.90
2465;DHT22;1244;54.326;10.074;2023-05-23T04:52:42;13.90;99.90
2465;DHT22;1244;54.326;10.074;2023-05-23T04:55:08;14.00;99.90
2465;DHT22;1244;54.326;10.074;2023-05-23T04:57:34;13.90;99.90
2465;DHT22;1244;54.326;10.074;2023-05-23T05:00:00;13.90;99.90
2465;DHT22;1244;54.326;10.074;2023-05-23T05:02:26;13.90;99.90
2465;DHT22;1244;54.326;10.074;2023-05-23T05:04:52;13.90;99.90
2465;DHT22;1244;54.326;10.074;2023-05-23T05:07:17;14.00;99.90
2465;DHT22;1244;54.326;10.074;2023-05-23T05:09:43;14.00;99.90
2465;DHT22;1244;54.326;10.074;2023-05-23T05:12:08;14.00;99.90
2465;DHT22;1244;54.326;10.074;2023-05-23T05:14:34;14.10;99.90
2465;DHT22;1244;54.326;10.074;2023-05-23T05:16:59;14.00;99.90
2465;DHT22;1244;54.326;10.074;2023-05-23T05:19:26;14.00;99.90
2465;DHT22;1244;54.326;10.074;2023-05-23T05:21:52;14.00;99.90
2465;DHT22;1244;54.326;10.074;2023-05-23T05:24:18;14.10;99.90
2465;DHT22;1244;54.326;10.074;2023-05-23T05:26:45;14.10;99.90
2465;DHT22;1244;54.326;10.074;2023-05-23T05:29:11;14.10;99.90
2465;DHT22;1244;54.326;10.074;2023-05-23T05:31:37;14.10;99.90
2465;DHT22;1244;54.326;10.074;2023-05-23T05:34:03;14.00;99.90
2465;DHT22;1244;54.326;10.074;2023-05-23T05:36:28;13.90;99.90
2465;DHT22;1244;54.326;10.074;2023-05-23T05:38:54;14.00;99.90
2465;DHT22;1244;54.326;10.074;2023-05-23T05:41:19;14.00;99.90
2465;DHT22;1244;54.326;10.074;2023-05-23T05:43:46;14.00;99.90
2465;DHT22;1244;54.326;10.074;2023-05-23T05:46:12;14.00;99.90
2465;DHT22;1244;54.326;10.074;2023-05-23T05:48:37;14.00;99.90
2465;DHT22;1244;54.326;10.074;2023-05-23T05:51:03;14.10;99.90
2465;DHT22;1244;54.326;10.074;2023-05-23T05:53:29;14.00;99.90
2465;DHT22;1244;54.326;10.074;2023-05-23T05:55:54;14.00;99.90
2465;DHT22;1244;54.326;10.074;2023-05-23T05:58:20;14.00;99.90
2465;DHT22;1244;54.326;10.074;2023-05-23T06:00:47;14.00;99.90
2465;DHT22;1244;54.326;10.074;2023-05-23T06:03:13;13.80;99.90
2465;DHT22;1244;54.326;10.074;2023-05-23T06:05:40;13.90;99.90
2465;DHT22;1244;54.326;10.074;2023-05-23T06:08:05;13.80;99.90
2465;DHT22;1244;54.326;10.074;2023-05-23T06:10:31;13.90;99.90
2465;DHT22;1244;54.326;10.074;2023-05-23T06:12:57;14.00;99.90
2465;DHT22;1244;54.326;10.074;2023-05-23T06:15:23;13.80;99.90
2465;DHT22;1244;54.326;10.074;2023-05-23T06:17:48;13.80;99.90
2465;DHT22;1244;54.326;10.074;2023-05-23T06:20:15;13.80;99.90
2465;DHT22;1244;54.326;10.074;2023-05-23T06:22:41;13.90;99.90
2465;DHT22;1244;54.326;10.074;2023-05-23T06:25:07;13.90;99.90
2465;DHT22;1244;54.326;10.074;2023-05-23T06:27:32;13.90;99.90
2465;DHT22;1244;54.326;10.074;2023-05-23T06:29:58;13.80;99.90
2465;DHT22;1244;54.326;10.074;2023-05-23T06:32:23;13.80;99.90
2465;DHT22;1244;54.326;10.074;2023-05-23T06:34:49;13.70;99.90
2465;DHT22;1244;54.326;10.074;2023-05-23T06:37:14;13.90;99.90
2465;DHT22;1244;54.326;10.074;2023-05-23T06:39:40;13.80;99.90
2465;DHT22;1244;54.326;10.074;2023-05-23T06:42:06;13.80;99.90
2465;DHT22;1244;54.326;10.074;2023-05-23T06:44:32;13.80;99.90
2465;DHT22;1244;54.326;10.074;2023-05-23T06:46:57;13.90;99.90
2465;DHT22;1244;54.326;10.074;2023-05-23T06:49:23;13.90;99.90
2465;DHT22;1244;54.326;10.074;2023-05-23T06:51:49;14.00;99.90
2465;DHT22;1244;54.326;10.074;2023-05-23T06:54:15;13.80;99.90
2465;DHT22;1244;54.326;10.074;2023-05-23T06:56:41;13.90;99.90
2465;DHT22;1244;54.326;10.074;2023-05-23T06:59:06;13.90;99.90
2465;DHT22;1244;54.326;10.074;2023-05-23T07:01:32;14.00;99.90
2465;DHT22;1244;54.326;10.074;2023-05-23T07:03:57;14.00;99.90
2465;DHT22;1244;54.326;10.074;2023-05-23T07:06:23;13.90;99.90
2465;DHT22;1244;54.326;10.074;2023-05-23T07:08:48;14.00;99.90
2465;DHT22;1244;54.326;10.074;2023-05-23T07:11:14;13.90;99.90
2465;DHT22;1244;54.326;10.074;2023-05-23T07:13:39;14.10;99.90
2465;DHT22;1244;54.326;10.074;2023-05-23T07:16:05;13.90;99.90
2465;DHT22;1244;54.326;10.074;2023-05-23T07:18:31;14.00;99.90
2465;DHT22;1244;54.326;10.074;2023-05-23T07:20:56;13.90;99.90
2465;DHT22;1244;54.326;10.074;2023-05-23T07:23:22;13.80;99.90
2465;DHT22;1244;54.326;10.074;2023-05-23T07:25:51;13.80;99.90
2465;DHT22;1244;54.326;10.074;2023-05-23T07:28:19;14.00;99.90
2465;DHT22;1244;54.326;10.074;2023-05-23T07:30:45;13.90;99.90
2465;DHT22;1244;54.326;10.074;2023-05-23T07:33:11;13.80;99.90
2465;DHT22;1244;54.326;10.074;2023-05-23T07:35:36;13.80;99.90
2465;DHT22;1244;54.326;10.074;2023-05-23T07:38:02;13.80;99.90
2465;DHT22;1244;54.326;10.074;2023-05-23T07:40:28;13.70;99.90
2465;DHT22;1244;54.326;10.074;2023-05-23T07:42:54;13.80;99.90
2465;DHT22;1244;54.326;10.074;2023-05-23T07:45:20;13.70;99.90
2465;DHT22;1244;54.326;10.074;2023-05-23T07:47:46;13.60;99.90
2465;DHT22;1244;54.326;10.074;2023-05-23T07:50:11;13.60;99.90
2465;DHT22;1244;54.326;10.074;2023-05-23T07:52:37;13.60;99.90
2465;DHT22;1244;54.326;10.074;2023-05-23T07:55:03;13.60;99.90
2465;DHT22;1244;54.326;10.074;2023-05-23T07:57:29;13.50;99.90
2465;DHT22;1244;54.326;10.074;2023-05-23T07:59:54;13.60;99.90
2465;DHT22;1244;54.326;10.074;2023-05-23T08:02:20;13.60;99.90
2465;DHT22;1244;54.326;10.074;2023-05-23T08:04:46;13.60;99.90
2465;DHT22;1244;54.326;10.074;2023-05-23T08:07:12;13.50;99.90
2465;DHT22;1244;54.326;10.074;2023-05-23T08:09:38;13.50;99.90
2465;DHT22;1244;54.326;10.074;2023-05-23T08:12:05;13.50;99.90
2465;DHT22;1244;54.326;10.074;2023-05-23T08:14:31;13.70;99.90
2465;DHT22;1244;54.326;10.074;2023-05-23T08:16:57;13.60;99.90
2465;DHT22;1244;54.326;10.074;2023-05-23T08:19:22;13.70;99.90
2465;DHT22;1244;54.326;10.074;2023-05-23T08:21:48;13.60;99.90
2465;DHT22;1244;54.326;10.074;2023-05-23T08:24:13;13.60;99.90
2465;DHT22;1244;54.326;10.074;2023-05-23T08:26:39;13.60;99.90
2465;DHT22;1244;54.326;10.074;2023-05-23T08:29:05;13.60;99.90
2465;DHT22;1244;54.326;10.074;2023-05-23T08:31:31;13.40;99.90
2465;DHT22;1244;54.326;10.074;2023-05-23T08:33:57;13.50;99.90
2465;DHT22;1244;54.326;10.074;2023-05-23T08:36:23;13.30;99.90
2465;DHT22;1244;54.326;10.074;2023-05-23T08:38:49;13.30;99.90
2465;DHT22;1244;54.326;10.074;2023-05-23T08:41:23;13.10;99.90
2465;DHT22;1244;54.326;10.074;2023-05-23T08:43:49;13.10;99.90
2465;DHT22;1244;54.326;10.074;2023-05-23T08:46:15;13.10;99.90
2465;DHT22;1244;54.326;10.074;2023-05-23T08:48:41;13.00;99.90
2465;DHT22;1244;54.326;10.074;2023-05-23T08:51:09;12.80;99.90
2465;DHT22;1244;54.326;10.074;2023-05-23T08:53:37;12.80;99.90
2465;DHT22;1244;54.326;10.074;2023-05-23T08:56:05;12.70;99.90
2465;DHT22;1244;54.326;10.074;2023-05-23T08:58:32;12.70;99.90
2465;DHT22;1244;54.326;10.074;2023-05-23T09:00:59;12.70;99.90
2465;DHT22;1244;54.326;10.074;2023-05-23T09:03:27;12.70;99.90
2465;DHT22;1244;54.326;10.074;2023-05-23T09:05:54;12.60;99.90
2465;DHT22;1244;54.326;10.074;2023-05-23T09:08:20;12.60;99.90
2465;DHT22;1244;54.326;10.074;2023-05-23T09:10:47;12.60;99.90
2465;DHT22;1244;54.326;10.074;2023-05-23T09:13:14;12.60;99.90
2465;DHT22;1244;54.326;10.074;2023-05-23T09:18:26;12.50;99.90
2465;DHT22;1244;54.326;10.074;2023-05-23T09:20:52;12.60;99.90
2465;DHT22;1244;54.326;10.074;2023-05-23T09:23:18;12.70;99.90
2465;DHT22;1244;54.326;10.074;2023-05-23T09:25:48;12.70;99.90
2465;DHT22;1244;54.326;10.074;2023-05-23T09:28:13;12.60;99.90
2465;DHT22;1244;54.326;10.074;2023-05-23T09:30:39;12.70;99.90
2465;DHT22;1244;54.326;10.074;2023-05-23T09:33:04;12.70;99.90
2465;DHT22;1244;54.326;10.074;2023-05-23T09:35:30;12.70;99.90
2465;DHT22;1244;54.326;10.074;2023-05-23T09:37:57;12.70;99.90
2465;DHT22;1244;54.326;10.074;2023-05-23T09:40:30;12.70;99.90
2465;DHT22;1244;54.326;10.074;2023-05-23T09:43:03;12.70;99.90
2465;DHT22;1244;54.326;10.074;2023-05-23T09:45:30;12.80;99.90
2465;DHT22;1244;54.326;10.074;2023-05-23T09:47:57;12.90;99.90
2465;DHT22;1244;54.326;10.074;2023-05-23T09:50:24;12.70;99.90
2465;DHT22;1244;54.326;10.074;2023-05-23T09:52:50;12.80;99.90
2465;DHT22;1244;54.326;10.074;2023-05-23T09:55:18;13.00;99.90
2465;DHT22;1244;54.326;10.074;2023-05-23T09:57:44;13.00;99.90
2465;DHT22;1244;54.326;10.074;2023-05-23T10:00:10;12.80;99.90
2465;DHT22;1244;54.326;10.074;2023-05-23T10:05:34;13.10;99.90
2465;DHT22;1244;54.326;10.074;2023-05-23T10:08:02;12.90;99.90
2465;DHT22;1244;54.326;10.074;2023-05-23T10:10:30;12.80;99.90
2465;DHT22;1244;54.326;10.074;2023-05-23T10:13:00;12.70;99.90
2465;DHT22;1244;54.326;10.074;2023-05-23T10:15:32;12.50;99.90
2465;DHT22;1244;54.326;10.074;2023-05-23T10:20:35;12.50;99.90
2465;DHT22;1244;54.326;10.074;2023-05-23T10:23:02;12.60;99.90
2465;DHT22;1244;54.326;10.074;2023-05-23T10:25:29;12.60;99.90
2465;DHT22;1244;54.326;10.074;2023-05-23T10:27:57;12.70;99.90
2465;DHT22;1244;54.326;10.074;2023-05-23T10:30:26;13.00;99.90
2465;DHT22;1244;54.326;10.074;2023-05-23T10:32:53;13.30;99.90
2465;DHT22;1244;54.326;10.074;2023-05-23T10:43:35;12.90;99.90
2465;DHT22;1244;54.326;10.074;2023-05-23T10:46:08;13.10;99.90
2465;DHT22;1244;54.326;10.074;2023-05-23T10:48:35;13.20;99.90
2465;DHT22;1244;54.326;10.074;2023-05-23T10:51:18;13.20;99.90
2465;DHT22;1244;54.326;10.074;2023-05-23T10:53:45;13.20;99.90
2465;DHT22;1244;54.326;10.074;2023-05-23T10:56:19;13.20;99.90
2465;DHT22;1244;54.326;10.074;2023-05-23T10:58:55;13.00;99.90
2465;DHT22;1244;54.326;10.074;2023-05-23T11:01:21;12.80;99.90
2465;DHT22;1244;54.326;10.074;2023-05-23T11:03:48;13.10;99.90
2465;DHT22;1244;54.326;10.074;2023-05-23T11:06:38;13.00;99.90
2465;DHT22;1244;54.326;10.074;2023-05-23T11:09:13;13.20;99.90
2465;DHT22;1244;54.326;10.074;2023-05-23T11:14:18;13.90;99.90
2465;DHT22;1244;54.326;10.074;2023-05-23T11:16:44;14.40;99.90
2465;DHT22;1244;54.326;10.074;2023-05-23T11:21:58;14.70;99.90
2465;DHT22;1244;54.326;10.074;2023-05-23T11:24:50;15.00;99.90
2465;DHT22;1244;54.326;10.074;2023-05-23T11:27:24;14.90;99.90
2465;DHT22;1244;54.326;10.074;2023-05-23T11:30:16;15.00;99.90
2465;DHT22;1244;54.326;10.074;2023-05-23T11:32:49;15.10;99.90
2465;DHT22;1244;54.326;10.074;2023-05-23T11:35:15;15.20;99.90
2465;DHT22;1244;54.326;10.074;2023-05-23T11:37:42;15.00;99.90
2465;DHT22;1244;54.326;10.074;2023-05-23T11:40:32;14.60;99.90
2465;DHT22;1244;54.326;10.074;2023-05-23T11:42:58;14.80;99.90
2465;DHT22;1244;54.326;10.074;2023-05-23T11:45:26;14.50;99.90
2465;DHT22;1244;54.326;10.074;2023-05-23T11:47:51;14.50;99.90
2465;DHT22;1244;54.326;10.074;2023-05-23T11:50:17;14.80;99.90
2465;DHT22;1244;54.326;10.074;2023-05-23T11:52:45;15.10;99.90
2465;DHT22;1244;54.326;10.074;2023-05-23T11:55:16;15.50;99.90
2465;DHT22;1244;54.326;10.074;2023-05-23T11:57:42;15.30;99.90
2465;DHT22;1244;54.326;10.074;2023-05-23T12:00:09;15.10;99.90
2465;DHT22;1244;54.326;10.074;2023-05-23T12:02:42;14.90;99.90
2465;DHT22;1244;54.326;10.074;2023-05-23T12:05:17;15.00;99.90
2465;DHT22;1244;54.326;10.074;2023-05-23T12:07:44;15.00;99.90
2465;DHT22;1244;54.326;10.074;2023-05-23T12:10:12;14.80;99.90
2465;DHT22;1244;54.326;10.074;2023-05-23T12:12:40;14.90;99.90
2465;DHT22;1244;54.326;10.074;2023-05-23T12:15:08;14.90;99.90
2465;DHT22;1244;54.326;10.074;2023-05-23T12:17:35;14.90;99.90
2465;DHT22;1244;54.326;10.074;2023-05-23T12:20:01;14.80;99.90
2465;DHT22;1244;54.326;10.074;2023-05-23T12:22:27;14.70;99.90
2465;DHT22;1244;54.326;10.074;2023-05-23T12:24:53;14.60;99.90
2465;DHT22;1244;54.326;10.074;2023-05-23T12:27:33;14.60;99.90
2465;DHT22;1244;54.326;10.074;2023-05-23T12:30:06;14.50;99.90
2465;DHT22;1244;54.326;10.074;2023-05-23T12:32:32;14.50;99.90
2465;DHT22;1244;54.326;10.074;2023-05-23T12:34:58;14.70;99.90
2465;DHT22;1244;54.326;10.074;2023-05-23T12:37:23;14.70;99.90
2465;DHT22;1244;54.326;10.074;2023-05-23T12:39:50;14.60;99.90
2465;DHT22;1244;54.326;10.074;2023-05-23T12:42:15;14.50;99.90
2465;DHT22;1244;54.326;10.074;2023-05-23T12:44:41;14.60;99.90
2465;DHT22;1244;54.326;10.074;2023-05-23T12:47:08;15.10;99.90
2465;DHT22;1244;54.326;10.074;2023-05-23T12:49:34;15.30;99.90
2465;DHT22;1244;54.326;10.074;2023-05-23T12:52:00;15.00;99.90
2465;DHT22;1244;54.326;10.074;2023-05-23T12:54:25;14.90;99.90
2465;DHT22;1244;54.326;10.074;2023-05-23T12:56:51;14.90;99.90
2465;DHT22;1244;54.326;10.074;2023-05-23T12:59:16;15.20;99.90
2465;DHT22;1244;54.326;10.074;2023-05-23T13:01:42;15.50;99.90
2465;DHT22;1244;54.326;10.074;2023-05-23T13:04:08;15.70;99.90
2465;DHT22;1244;54.326;10.074;2023-05-23T13:06:33;15.40;99.90
2465;DHT22;1244;54.326;10.074;2023-05-23T13:08:59;15.30;99.90
2465;DHT22;1244;54.326;10.074;2023-05-23T13:11:24;15.10;99.90
2465;DHT22;1244;54.326;10.074;2023-05-23T13:13:50;15.10;99.90
2465;DHT22;1244;54.326;10.074;2023-05-23T13:16:17;14.80;99.90
2465;DHT22;1244;54.326;10.074;2023-05-23T13:18:43;15.40;99.90
2465;DHT22;1244;54.326;10.074;2023-05-23T13:21:09;15.70;99.90
2465;DHT22;1244;54.326;10.074;2023-05-23T13:23:35;15.50;99.90
2465;DHT22;1244;54.326;10.074;2023-05-23T13:26:03;15.30;99.90
2465;DHT22;1244;54.326;10.074;2023-05-23T13:28:29;15.00;99.90
2465;DHT22;1244;54.326;10.074;2023-05-23T13:30:54;15.00;99.90
2465;DHT22;1244;54.326;10.074;2023-05-23T13:33:20;15.00;99.90
2465;DHT22;1244;54.326;10.074;2023-05-23T13:35:47;14.80;99.90
2465;DHT22;1244;54.326;10.074;2023-05-23T13:38:16;14.90;99.90
2465;DHT22;1244;54.326;10.074;2023-05-23T13:40:41;15.10;99.90
2465;DHT22;1244;54.326;10.074;2023-05-23T13:43:07;15.20;99.90
2465;DHT22;1244;54.326;10.074;2023-05-23T13:45:32;15.60;99.90
2465;DHT22;1244;54.326;10.074;2023-05-23T13:47:58;15.60;99.90
2465;DHT22;1244;54.326;10.074;2023-05-23T13:50:24;15.50;99.90
2465;DHT22;1244;54.326;10.074;2023-05-23T13:52:49;15.20;99.90
2465;DHT22;1244;54.326;10.074;2023-05-23T13:55:15;14.90;99.90
2465;DHT22;1244;54.326;10.074;2023-05-23T13:57:41;14.90;99.90
2465;DHT22;1244;54.326;10.074;2023-05-23T14:00:07;15.00;99.90
2465;DHT22;1244;54.326;10.074;2023-05-23T14:02:33;15.40;99.90
2465;DHT22;1244;54.326;10.074;2023-05-23T14:04:58;15.70;99.90
2465;DHT22;1244;54.326;10.074;2023-05-23T14:07:24;15.30;99.90
2465;DHT22;1244;54.326;10.074;2023-05-23T14:09:49;15.40;99.90
2465;DHT22;1244;54.326;10.074;2023-05-23T14:12:15;15.10;99.90
2465;DHT22;1244;54.326;10.074;2023-05-23T14:14:40;14.90;99.90
2465;DHT22;1244;54.326;10.074;2023-05-23T14:17:06;14.50;99.90
2465;DHT22;1244;54.326;10.074;2023-05-23T14:19:31;14.40;99.90
2465;DHT22;1244;54.326;10.074;2023-05-23T14:21:57;14.50;99.90
2465;DHT22;1244;54.326;10.074;2023-05-23T14:24:22;14.90;99.90
2465;DHT22;1244;54.326;10.074;2023-05-23T14:26:48;14.90;99.90
2465;DHT22;1244;54.326;10.074;2023-05-23T14:29:14;14.70;99.90
2465;DHT22;1244;54.326;10.074;2023-05-23T14:31:40;14.60;99.90
2465;DHT22;1244;54.326;10.074;2023-05-23T14:34:05;14.70;99.90
2465;DHT22;1244;54.326;10.074;2023-05-23T14:36:31;14.80;99.90
2465;DHT22;1244;54.326;10.074;2023-05-23T14:38:57;14.80;99.90
2465;DHT22;1244;54.326;10.074;2023-05-23T14:41:22;14.40;99.90
2465;DHT22;1244;54.326;10.074;2023-05-23T14:43:48;14.90;99.90
2465;DHT22;1244;54.326;10.074;2023-05-23T14:46:13;15.20;99.90
2465;DHT22;1244;54.326;10.074;2023-05-23T14:48:40;15.30;99.90
2465;DHT22;1244;54.326;10.074;2023-05-23T14:51:06;15.20;99.90
2465;DHT22;1244;54.326;10.074;2023-05-23T14:53:31;14.90;99.90
2465;DHT22;1244;54.326;10.074;2023-05-23T14:55:57;14.40;99.90
2465;DHT22;1244;54.326;10.074;2023-05-23T14:58:22;14.20;99.90
2465;DHT22;1244;54.326;10.074;2023-05-23T15:00:50;14.40;99.90
2465;DHT22;1244;54.326;10.074;2023-05-23T15:03:15;14.40;99.90
2465;DHT22;1244;54.326;10.074;2023-05-23T15:05:41;14.40;99.90
2465;DHT22;1244;54.326;10.074;2023-05-23T15:08:06;14.10;99.90
2465;DHT22;1244;54.326;10.074;2023-05-23T15:10:32;14.40;99.90
2465;DHT22;1244;54.326;10.074;2023-05-23T15:12:57;14.10;99.90
2465;DHT22;1244;54.326;10.074;2023-05-23T15:15:23;14.10;99.90
2465;DHT22;1244;54.326;10.074;2023-05-23T15:17:50;14.20;99.90
2465;DHT22;1244;54.326;10.074;2023-05-23T15:20:16;14.00;99.90
2465;DHT22;1244;54.326;10.074;2023-05-23T15:22:42;14.20;99.90
2465;DHT22;1244;54.326;10.074;2023-05-23T15:25:08;14.00;99.90
2465;DHT22;1244;54.326;10.074;2023-05-23T15:27:34;14.00;99.90
2465;DHT22;1244;54.326;10.074;2023-05-23T15:30:00;13.80;99.90
2465;DHT22;1244;54.326;10.074;2023-05-23T15:32:25;13.70;99.90
2465;DHT22;1244;54.326;10.074;2023-05-23T15:34:51;13.50;99.90
2465;DHT22;1244;54.326;10.074;2023-05-23T15:37:16;13.40;99.90
2465;DHT22;1244;54.326;10.074;2023-05-23T15:39:42;13.60;99.90
2465;DHT22;1244;54.326;10.074;2023-05-23T15:42:08;13.60;99.90
2465;DHT22;1244;54.326;10.074;2023-05-23T15:44:34;13.50;99.90
2465;DHT22;1244;54.326;10.074;2023-05-23T15:46:59;13.60;99.90
2465;DHT22;1244;54.326;10.074;2023-05-23T15:49:25;13.50;99.90
2465;DHT22;1244;54.326;10.074;2023-05-23T15:51:50;13.80;99.90
2465;DHT22;1244;54.326;10.074;2023-05-23T15:54:17;13.50;99.90
2465;DHT22;1244;54.326;10.074;2023-05-23T15:56:43;13.30;99.90
2465;DHT22;1244;54.326;10.074;2023-05-23T15:59:08;13.20;99.90
2465;DHT22;1244;54.326;10.074;2023-05-23T16:01:34;13.20;99.90
2465;DHT22;1244;54.326;10.074;2023-05-23T16:03:59;13.40;99.90
2465;DHT22;1244;54.326;10.074;2023-05-23T16:06:25;13.40;99.90
2465;DHT22;1244;54.326;10.074;2023-05-23T16:08:52;13.50;99.90
2465;DHT22;1244;54.326;10.074;2023-05-23T16:11:18;13.10;99.90